sensor_id;sensor_type;location;lat;lon;timestamp;temperature;humidity
15286;DHT22;7744;52.172;10.668;2023-02-04T00:01:35;5.00;99.90
15286;DHT22;7744;52.172;10.668;2023-02-04T00:04:01;4.80;99.90
15286;DHT22;7744;52.172;10.668;2023-02-04T00:06:27;4.50;99.90
15286;DHT22;7744;52.172;10.668;2023-02-04T00:08:52;4.30;1.00
15286;DHT22;7744;52.172;10.668;2023-02-04T00:11:18;4.10;99.90
15286;DHT22;7744;52.172;10.668;2023-02-04T00:13:43;3.90;99.90
15286;DHT22;7744;52.172;10.668;2023-02-04T00:16:09;3.80;99.90
15286;DHT22;7744;52.172;10.668;2023-02-04T00:18:34;3.80;99.90
15286;DHT22;7744;52.172;10.668;2023-02-04T00:21:00;3.70;99.90
15286;DHT22;7744;52.172;10.668;2023-02-04T00:23:25;3.80;99.90
15286;DHT22;7744;52.172;10.668;2023-02-04T00:25:51;3.70;99.90
15286;DHT22;7744;52.172;10.668;2023-02-04T00:28:17;3.60;99.90
15286;DHT22;7744;52.172;10.668;2023-02-04T00:30:43;3.50;99.90
15286;DHT22;7744;52.172;10.668;2023-02-04T00:33:08;3.50;99.90
15286;DHT22;7744;52.172;10.668;2023-02-04T00:35:34;3.50;99.90
15286;DHT22;7744;52.172;10.668;2023-02-04T00:38:02;3.50;99.90
15286;DHT22;7744;52.172;10.668;2023-02-04T00:40:27;3.50;99.90
15286;DHT22;7744;52.172;10.668;2023-02-04T00:42:53;3.60;99.90
15286;DHT22;7744;52.172;10.668;2023-02-04T00:45:18;3.60;99.90
15286;DHT22;7744;52.172;10.668;2023-02-04T00:47:44;3.50;99.90
15286;DHT22;7744;52.172;10.668;2023-02-04T00:50:10;3.50;99.90
15286;DHT22;7744;52.172;10.668;2023-02-04T00:52:35;3.50;99.90
15286;DHT22;7744;52.172;10.668;2023-02-04T00:55:01;3.50;99.90
15286;DHT22;7744;52.172;10.668;2023-02-04T00:57:26;3.50;99.90
15286;DHT22;7744;52.172;10.668;2023-02-04T00:59:52;3.50;99.90
15286;DHT22;7744;52.172;10.668;2023-02-04T01:02:17;3.40;99.90
15286;DHT22;7744;52.172;10.668;2023-02-04T01:04:43;3.50;99.90
15286;DHT22;7744;52.172;10.668;2023-02-04T01:07:08;3.40;99.90
15286;DHT22;7744;52.172;10.668;2023-02-04T01:09:34;3.40;99.90
15286;DHT22;7744;52.172;10.668;2023-02-04T01:12:00;3.40;99.90
15286;DHT22;7744;52.172;10.668;2023-02-04T01:14:25;3.40;99.90
15286;DHT22;7744;52.172;10.668;2023-02-04T01:16:51;3.40;99.90
15286;DHT22;7744;52.172;10.668;2023-02-04T01:19:17;3.40;94.60
15286;DHT22;7744;52.172;10.668;2023-02-04T01:21:43;3.40;99.90
15286;DHT22;7744;52.172;10.668;2023-02-04T01:24:08;3.30;94.40
15286;DHT22;7744;52.172;10.668;2023-02-04T01:26:34;3.20;92.70
15286;DHT22;7744;52.172;10.668;2023-02-04T01:28:59;3.20;69.80
15286;DHT22;7744;52.172;10.668;2023-02-04T01:31:25;3.20;78.30
15286;DHT22;7744;52.172;10.668;2023-02-04T01:33:51;3.20;83.10
15286;DHT22;7744;52.172;10.668;2023-02-04T01:36:17;3.10;87.30
15286;DHT22;7744;52.172;10.668;2023-02-04T01:38:46;3.10;81.80
15286;DHT22;7744;52.172;10.668;2023-02-04T01:41:12;3.10;78.00
15286;DHT22;7744;52.172;10.668;2023-02-04T01:43:38;4.30;68.70
15286;DHT22;7744;52.172;10.668;2023-02-04T01:46:03;3.10;78.10
15286;DHT22;7744;52.172;10.668;2023-02-04T01:48:29;3.10;75.00
15286;DHT22;7744;52.172;10.668;2023-02-04T01:51:07;3.20;87.70
15286;DHT22;7744;52.172;10.668;2023-02-04T01:53:35;3.20;81.40
15286;DHT22;7744;52.172;10.668;2023-02-04T01:56:15;3.20;57.00
15286;DHT22;7744;52.172;10.668;2023-02-04T01:58:42;3.20;59.80
15286;DHT22;7744;52.172;10.668;2023-02-04T02:01:34;3.90;77.60
15286;DHT22;7744;52.172;10.668;2023-02-04T02:04:00;3.20;60.80
15286;DHT22;7744;52.172;10.668;2023-02-04T02:06:27;3.30;56.30
15286;DHT22;7744;52.172;10.668;2023-02-04T02:08:52;3.10;75.60
15286;DHT22;7744;52.172;10.668;2023-02-04T02:11:18;3.00;66.90
15286;DHT22;7744;52.172;10.668;2023-02-04T02:13:44;3.00;62.70
15286;DHT22;7744;52.172;10.668;2023-02-04T02:16:09;3.00;68.00
15286;DHT22;7744;52.172;10.668;2023-02-04T02:18:35;2.90;68.80
15286;DHT22;7744;52.172;10.668;2023-02-04T02:21:05;2.90;85.60
15286;DHT22;7744;52.172;10.668;2023-02-04T02:23:53;3.00;64.20
15286;DHT22;7744;52.172;10.668;2023-02-04T02:26:20;2.90;60.60
15286;DHT22;7744;52.172;10.668;2023-02-04T02:28:46;2.90;73.20
15286;DHT22;7744;52.172;10.668;2023-02-04T02:31:13;2.80;91.30
15286;DHT22;7744;52.172;10.668;2023-02-04T02:33:39;2.70;92.70
15286;DHT22;7744;52.172;10.668;2023-02-04T02:36:05;2.60;98.80
15286;DHT22;7744;52.172;10.668;2023-02-04T02:38:31;2.60;99.90
15286;DHT22;7744;52.172;10.668;2023-02-04T02:40:57;2.50;99.90
15286;DHT22;7744;52.172;10.668;2023-02-04T02:43:24;2.50;99.90
15286;DHT22;7744;52.172;10.668;2023-02-04T02:45:51;2.50;99.90
15286;DHT22;7744;52.172;10.668;2023-02-04T02:48:18;2.40;99.90
15286;DHT22;7744;52.172;10.668;2023-02-04T02:50:44;2.40;99.90
15286;DHT22;7744;52.172;10.668;2023-02-04T02:53:15;2.30;99.90
15286;DHT22;7744;52.172;10.668;2023-02-04T02:55:41;2.30;99.90
15286;DHT22;7744;52.172;10.668;2023-02-04T03:00:41;2.40;99.90
15286;DHT22;7744;52.172;10.668;2023-02-04T03:03:25;2.30;99.90
15286;DHT22;7744;52.172;10.668;2023-02-04T03:05:54;2.20;99.90
15286;DHT22;7744;52.172;10.668;2023-02-04T03:08:22;2.20;99.90
15286;DHT22;7744;52.172;10.668;2023-02-04T03:10:47;2.20;99.90
15286;DHT22;7744;52.172;10.668;2023-02-04T03:13:15;2.10;1.00
15286;DHT22;7744;52.172;10.668;2023-02-04T03:15:42;2.10;99.90
15286;DHT22;7744;52.172;10.668;2023-02-04T03:18:09;2.10;1.00
15286;DHT22;7744;52.172;10.668;2023-02-04T03:20:36;2.10;1.00
15286;DHT22;7744;52.172;10.668;2023-02-04T03:23:01;-0.10;1.00
15286;DHT22;7744;52.172;10.668;2023-02-04T03:25:27;1.90;1.00
15286;DHT22;7744;52.172;10.668;2023-02-04T03:27:54;1.90;1.00
15286;DHT22;7744;52.172;10.668;2023-02-04T03:30:21;1.80;1.00
15286;DHT22;7744;52.172;10.668;2023-02-04T03:32:47;1.70;1.00
15286;DHT22;7744;52.172;10.668;2023-02-04T03:35:13;1.60;1.00
15286;DHT22;7744;52.172;10.668;2023-02-04T03:37:38;1.60;1.00
15286;DHT22;7744;52.172;10.668;2023-02-04T03:40:04;1.50;1.00
15286;DHT22;7744;52.172;10.668;2023-02-04T03:42:30;1.50;1.00
15286;DHT22;7744;52.172;10.668;2023-02-04T03:44:56;1.50;1.00
15286;DHT22;7744;52.172;10.668;2023-02-04T03:47:21;1.40;1.00
15286;DHT22;7744;52.172;10.668;2023-02-04T03:49:47;1.50;1.00
15286;DHT22;7744;52.172;10.668;2023-02-04T03:52:12;1.50;1.00
15286;DHT22;7744;52.172;10.668;2023-02-04T03:54:38;1.50;1.00
15286;DHT22;7744;52.172;10.668;2023-02-04T03:57:03;1.40;1.00
15286;DHT22;7744;52.172;10.668;2023-02-04T03:59:29;1.40;15.70
15286;DHT22;7744;52.172;10.668;2023-02-04T04:01:54;1.50;48.90
15286;DHT22;7744;52.172;10.668;2023-02-04T04:04:20;1.60;99.90
15286;DHT22;7744;52.172;10.668;2023-02-04T04:06:45;1.60;99.90
15286;DHT22;7744;52.172;10.668;2023-02-04T04:09:11;1.50;11.10
15286;DHT22;7744;52.172;10.668;2023-02-04T04:11:36;1.60;99.90
15286;DHT22;7744;52.172;10.668;2023-02-04T04:14:02;0.80;99.90
15286;DHT22;7744;52.172;10.668;2023-02-04T04:16:28;1.60;99.90
15286;DHT22;7744;52.172;10.668;2023-02-04T04:18:54;1.60;99.90
15286;DHT22;7744;52.172;10.668;2023-02-04T04:21:20;1.50;99.90
15286;DHT22;7744;52.172;10.668;2023-02-04T04:23:46;1.50;81.00
15286;DHT22;7744;52.172;10.668;2023-02-04T04:26:11;1.50;90.60
15286;DHT22;7744;52.172;10.668;2023-02-04T04:28:37;1.50;99.90
15286;DHT22;7744;52.172;10.668;2023-02-04T04:31:02;1.50;99.90
15286;DHT22;7744;52.172;10.668;2023-02-04T04:33:28;1.50;99.90
15286;DHT22;7744;52.172;10.668;2023-02-04T04:35:53;1.50;99.90
15286;DHT22;7744;52.172;10.668;2023-02-04T04:38:19;1.50;99.90
15286;DHT22;7744;52.172;10.668;2023-02-04T04:40:44;1.40;99.90
15286;DHT22;7744;52.172;10.668;2023-02-04T04:43:10;1.50;99.90
15286;DHT22;7744;52.172;10.668;2023-02-04T04:45:36;1.40;99.90
15286;DHT22;7744;52.172;10.668;2023-02-04T04:48:01;1.40;99.90
15286;DHT22;7744;52.172;10.668;2023-02-04T04:50:27;1.40;99.90
15286;DHT22;7744;52.172;10.668;2023-02-04T04:52:53;1.20;92.90
15286;DHT22;7744;52.172;10.668;2023-02-04T04:55:18;1.10;71.00
15286;DHT22;7744;52.172;10.668;2023-02-04T04:57:44;1.20;99.90
15286;DHT22;7744;52.172;10.668;2023-02-04T05:00:14;1.30;99.90
15286;DHT22;7744;52.172;10.668;2023-02-04T05:02:40;1.40;99.90
15286;DHT22;7744;52.172;10.668;2023-02-04T05:05:06;1.30;99.90
15286;DHT22;7744;52.172;10.668;2023-02-04T05:07:32;1.30;99.90
15286;DHT22;7744;52.172;10.668;2023-02-04T05:09:57;1.30;99.90
15286;DHT22;7744;52.172;10.668;2023-02-04T05:12:23;1.30;68.40
15286;DHT22;7744;52.172;10.668;2023-02-04T05:14:48;1.30;99.90
15286;DHT22;7744;52.172;10.668;2023-02-04T05:17:14;1.50;99.90
15286;DHT22;7744;52.172;10.668;2023-02-04T05:19:39;1.70;99.90
15286;DHT22;7744;52.172;10.668;2023-02-04T05:22:05;1.80;99.90
15286;DHT22;7744;52.172;10.668;2023-02-04T05:24:30;1.80;99.90
15286;DHT22;7744;52.172;10.668;2023-02-04T05:26:56;1.60;1.00
15286;DHT22;7744;52.172;10.668;2023-02-04T05:29:21;1.60;1.00
15286;DHT22;7744;52.172;10.668;2023-02-04T05:31:47;1.40;1.00
15286;DHT22;7744;52.172;10.668;2023-02-04T05:34:12;1.40;1.00
15286;DHT22;7744;52.172;10.668;2023-02-04T05:36:38;1.40;9.70
15286;DHT22;7744;52.172;10.668;2023-02-04T05:39:03;1.40;70.00
15286;DHT22;7744;52.172;10.668;2023-02-04T05:41:29;1.50;99.90
15286;DHT22;7744;52.172;10.668;2023-02-04T05:43:55;1.50;99.90
15286;DHT22;7744;52.172;10.668;2023-02-04T05:46:20;1.60;99.90
15286;DHT22;7744;52.172;10.668;2023-02-04T05:48:46;1.70;1.00
15286;DHT22;7744;52.172;10.668;2023-02-04T05:51:11;1.70;1.00
15286;DHT22;7744;52.172;10.668;2023-02-04T05:53:37;1.80;1.00
15286;DHT22;7744;52.172;10.668;2023-02-04T05:56:02;1.90;10.10
15286;DHT22;7744;52.172;10.668;2023-02-04T05:58:28;2.00;7.40
15286;DHT22;7744;52.172;10.668;2023-02-04T06:01:01;2.00;1.00
15286;DHT22;7744;52.172;10.668;2023-02-04T06:03:27;2.10;1.00
15286;DHT22;7744;52.172;10.668;2023-02-04T06:05:53;2.00;1.00
15286;DHT22;7744;52.172;10.668;2023-02-04T06:08:19;1.90;1.00
15286;DHT22;7744;52.172;10.668;2023-02-04T06:10:45;1.70;1.00
15286;DHT22;7744;52.172;10.668;2023-02-04T06:13:10;1.70;1.00
15286;DHT22;7744;52.172;10.668;2023-02-04T06:15:36;1.80;1.00
15286;DHT22;7744;52.172;10.668;2023-02-04T06:18:01;1.90;1.00
15286;DHT22;7744;52.172;10.668;2023-02-04T06:20:27;1.80;1.00
15286;DHT22;7744;52.172;10.668;2023-02-04T06:22:53;1.80;1.00
15286;DHT22;7744;52.172;10.668;2023-02-04T06:25:22;1.70;1.00
15286;DHT22;7744;52.172;10.668;2023-02-04T06:27:48;1.50;1.00
15286;DHT22;7744;52.172;10.668;2023-02-04T06:30:14;1.50;1.00
15286;DHT22;7744;52.172;10.668;2023-02-04T06:32:40;1.50;1.00
15286;DHT22;7744;52.172;10.668;2023-02-04T06:35:06;1.40;1.00
15286;DHT22;7744;52.172;10.668;2023-02-04T06:37:31;1.50;1.00
15286;DHT22;7744;52.172;10.668;2023-02-04T06:39:57;1.40;1.00
15286;DHT22;7744;52.172;10.668;2023-02-04T06:42:23;1.50;1.00
15286;DHT22;7744;52.172;10.668;2023-02-04T06:44:52;1.30;1.00
15286;DHT22;7744;52.172;10.668;2023-02-04T06:47:17;1.20;1.00
15286;DHT22;7744;52.172;10.668;2023-02-04T06:49:43;1.00;1.00
15286;DHT22;7744;52.172;10.668;2023-02-04T06:52:09;0.90;1.00
15286;DHT22;7744;52.172;10.668;2023-02-04T06:54:34;0.80;1.00
15286;DHT22;7744;52.172;10.668;2023-02-04T06:57:00;0.70;1.00
15286;DHT22;7744;52.172;10.668;2023-02-04T06:59:35;0.60;1.00
15286;DHT22;7744;52.172;10.668;2023-02-04T07:02:01;0.60;4.90
15286;DHT22;7744;52.172;10.668;2023-02-04T07:04:27;0.60;24.90
15286;DHT22;7744;52.172;10.668;2023-02-04T07:06:53;0.60;80.80
15286;DHT22;7744;52.172;10.668;2023-02-04T07:09:19;0.60;77.90
15286;DHT22;7744;52.172;10.668;2023-02-04T07:11:44;0.70;99.90
15286;DHT22;7744;52.172;10.668;2023-02-04T07:14:10;0.50;99.90
15286;DHT22;7744;52.172;10.668;2023-02-04T07:16:36;0.70;99.90
15286;DHT22;7744;52.172;10.668;2023-02-04T07:19:02;0.60;99.90
15286;DHT22;7744;52.172;10.668;2023-02-04T07:21:28;0.70;99.90
15286;DHT22;7744;52.172;10.668;2023-02-04T07:23:53;0.80;99.90
15286;DHT22;7744;52.172;10.668;2023-02-04T07:26:19;0.80;99.90
15286;DHT22;7744;52.172;10.668;2023-02-04T07:28:44;0.80;99.90
15286;DHT22;7744;52.172;10.668;2023-02-04T07:31:10;0.90;99.90
15286;DHT22;7744;52.172;10.668;2023-02-04T07:33:35;0.90;99.90
15286;DHT22;7744;52.172;10.668;2023-02-04T07:36:01;0.80;99.90
15286;DHT22;7744;52.172;10.668;2023-02-04T07:38:27;0.80;99.90
15286;DHT22;7744;52.172;10.668;2023-02-04T07:40:53;0.90;99.90
15286;DHT22;7744;52.172;10.668;2023-02-04T07:43:18;1.00;1.00
15286;DHT22;7744;52.172;10.668;2023-02-04T07:45:44;1.00;99.90
15286;DHT22;7744;52.172;10.668;2023-02-04T07:48:09;0.90;99.90
15286;DHT22;7744;52.172;10.668;2023-02-04T07:50:36;1.00;99.90
15286;DHT22;7744;52.172;10.668;2023-02-04T07:53:02;1.00;1.00
15286;DHT22;7744;52.172;10.668;2023-02-04T07:55:28;2.40;1.00
15286;DHT22;7744;52.172;10.668;2023-02-04T07:57:54;1.20;1.00
15286;DHT22;7744;52.172;10.668;2023-02-04T08:00:20;1.40;1.00
15286;DHT22;7744;52.172;10.668;2023-02-04T08:02:45;1.60;1.00
15286;DHT22;7744;52.172;10.668;2023-02-04T08:05:11;1.40;99.90
15286;DHT22;7744;52.172;10.668;2023-02-04T08:07:37;1.40;99.90
15286;DHT22;7744;52.172;10.668;2023-02-04T08:10:04;1.50;99.90
15286;DHT22;7744;52.172;10.668;2023-02-04T08:12:30;1.70;99.90
15286;DHT22;7744;52.172;10.668;2023-02-04T08:14:55;1.60;99.90
15286;DHT22;7744;52.172;10.668;2023-02-04T08:17:21;1.60;1.00
15286;DHT22;7744;52.172;10.668;2023-02-04T08:19:46;1.60;1.00
15286;DHT22;7744;52.172;10.668;2023-02-04T08:22:12;1.60;1.00
15286;DHT22;7744;52.172;10.668;2023-02-04T08:24:37;1.80;1.00
15286;DHT22;7744;52.172;10.668;2023-02-04T08:27:03;1.80;1.00
15286;DHT22;7744;52.172;10.668;2023-02-04T08:29:29;1.80;1.00
15286;DHT22;7744;52.172;10.668;2023-02-04T08:31:54;1.80;1.00
15286;DHT22;7744;52.172;10.668;2023-02-04T08:34:20;1.80;1.00
15286;DHT22;7744;52.172;10.668;2023-02-04T08:36:46;1.90;1.00
15286;DHT22;7744;52.172;10.668;2023-02-04T08:39:11;1.90;1.00
15286;DHT22;7744;52.172;10.668;2023-02-04T08:41:37;1.90;1.00
15286;DHT22;7744;52.172;10.668;2023-02-04T08:44:03;1.80;1.00
15286;DHT22;7744;52.172;10.668;2023-02-04T08:46:29;1.60;1.00
15286;DHT22;7744;52.172;10.668;2023-02-04T08:48:55;1.50;1.00
15286;DHT22;7744;52.172;10.668;2023-02-04T08:51:20;1.50;1.00
15286;DHT22;7744;52.172;10.668;2023-02-04T08:53:55;1.30;1.00
15286;DHT22;7744;52.172;10.668;2023-02-04T08:56:22;0.90;1.00
15286;DHT22;7744;52.172;10.668;2023-02-04T08:58:50;2.20;1.00
15286;DHT22;7744;52.172;10.668;2023-02-04T09:01:17;1.00;34.10
15286;DHT22;7744;52.172;10.668;2023-02-04T09:03:43;1.10;99.90
15286;DHT22;7744;52.172;10.668;2023-02-04T09:06:09;1.10;1.00
15286;DHT22;7744;52.172;10.668;2023-02-04T09:08:35;0.90;99.90
15286;DHT22;7744;52.172;10.668;2023-02-04T09:11:20;0.70;1.00
15286;DHT22;7744;52.172;10.668;2023-02-04T09:14:53;0.80;1.00
15286;DHT22;7744;52.172;10.668;2023-02-04T09:31:20;3.10;1.00
15286;DHT22;7744;52.172;10.668;2023-02-04T09:34:18;4.30;1.00
15286;DHT22;7744;52.172;10.668;2023-02-04T09:36:49;-0.30;99.90
15286;DHT22;7744;52.172;10.668;2023-02-04T09:46:04;4.60;1.00
15286;DHT22;7744;52.172;10.668;2023-02-04T09:55:29;2.50;99.90
15286;DHT22;7744;52.172;10.668;2023-02-04T10:00:25;2.50;99.90
15286;DHT22;7744;52.172;10.668;2023-02-04T10:05:30;2.50;99.90
15286;DHT22;7744;52.172;10.668;2023-02-04T10:08:00;2.50;99.90
15286;DHT22;7744;52.172;10.668;2023-02-04T10:10:26;2.60;99.90
15286;DHT22;7744;52.172;10.668;2023-02-04T10:12:55;2.20;99.90
15286;DHT22;7744;52.172;10.668;2023-02-04T10:15:22;2.30;1.00
15286;DHT22;7744;52.172;10.668;2023-02-04T10:17:50;2.50;1.00
15286;DHT22;7744;52.172;10.668;2023-02-04T10:20:18;2.70;1.00
15286;DHT22;7744;52.172;10.668;2023-02-04T10:22:48;2.60;1.00
15286;DHT22;7744;52.172;10.668;2023-02-04T10:25:16;2.70;1.00
15286;DHT22;7744;52.172;10.668;2023-02-04T10:27:53;2.90;1.00
15286;DHT22;7744;52.172;10.668;2023-02-04T10:30:41;3.00;1.00
15286;DHT22;7744;52.172;10.668;2023-02-04T10:33:20;3.00;1.00
15286;DHT22;7744;52.172;10.668;2023-02-04T10:35:49;3.20;1.00
15286;DHT22;7744;52.172;10.668;2023-02-04T10:38:15;3.10;1.00
15286;DHT22;7744;52.172;10.668;2023-02-04T10:40:40;3.20;1.00
15286;DHT22;7744;52.172;10.668;2023-02-04T10:43:19;3.20;1.00
15286;DHT22;7744;52.172;10.668;2023-02-04T10:46:02;3.50;1.00
15286;DHT22;7744;52.172;10.668;2023-02-04T10:48:28;3.40;1.00
15286;DHT22;7744;52.172;10.668;2023-02-04T10:50:56;3.00;1.00
15286;DHT22;7744;52.172;10.668;2023-02-04T10:53:23;3.30;1.00
15286;DHT22;7744;52.172;10.668;2023-02-04T10:56:16;3.60;1.00
15286;DHT22;7744;52.172;10.668;2023-02-04T10:58:42;3.40;1.00
15286;DHT22;7744;52.172;10.668;2023-02-04T11:01:10;3.90;1.00
15286;DHT22;7744;52.172;10.668;2023-02-04T11:03:37;3.40;1.00
15286;DHT22;7744;52.172;10.668;2023-02-04T11:06:19;3.50;1.00
15286;DHT22;7744;52.172;10.668;2023-02-04T11:08:45;3.70;99.90
15286;DHT22;7744;52.172;10.668;2023-02-04T11:11:21;3.60;1.00
15286;DHT22;7744;52.172;10.668;2023-02-04T11:21:27;3.80;99.90
15286;DHT22;7744;52.172;10.668;2023-02-04T11:27:06;5.10;99.90
15286;DHT22;7744;52.172;10.668;2023-02-04T11:29:36;4.10;99.90
15286;DHT22;7744;52.172;10.668;2023-02-04T11:34:44;4.60;99.90
15286;DHT22;7744;52.172;10.668;2023-02-04T11:37:17;4.40;99.90
15286;DHT22;7744;52.172;10.668;2023-02-04T11:39:48;4.50;99.90
15286;DHT22;7744;52.172;10.668;2023-02-04T11:42:38;4.80;99.90
15286;DHT22;7744;52.172;10.668;2023-02-04T11:45:20;4.60;99.90
15286;DHT22;7744;52.172;10.668;2023-02-04T11:47:56;4.80;99.90
15286;DHT22;7744;52.172;10.668;2023-02-04T11:50:28;7.00;99.90
15286;DHT22;7744;52.172;10.668;2023-02-04T11:52:56;5.00;99.90
15286;DHT22;7744;52.172;10.668;2023-02-04T11:55:22;4.70;99.90
15286;DHT22;7744;52.172;10.668;2023-02-04T11:57:53;4.60;99.90
15286;DHT22;7744;52.172;10.668;2023-02-04T12:00:24;4.60;99.90
15286;DHT22;7744;52.172;10.668;2023-02-04T12:03:03;4.80;99.90
15286;DHT22;7744;52.172;10.668;2023-02-04T12:05:45;5.00;99.90
15286;DHT22;7744;52.172;10.668;2023-02-04T12:08:33;4.70;99.90
15286;DHT22;7744;52.172;10.668;2023-02-04T12:13:25;4.40;99.90
15286;DHT22;7744;52.172;10.668;2023-02-04T12:16:02;4.60;99.90
15286;DHT22;7744;52.172;10.668;2023-02-04T12:18:29;4.60;99.90
15286;DHT22;7744;52.172;10.668;2023-02-04T12:20:56;4.30;99.90
15286;DHT22;7744;52.172;10.668;2023-02-04T12:23:22;5.90;1.00
15286;DHT22;7744;52.172;10.668;2023-02-04T12:25:48;4.50;1.00
15286;DHT22;7744;52.172;10.668;2023-02-04T12:28:14;4.30;1.00
15286;DHT22;7744;52.172;10.668;2023-02-04T12:30:40;4.50;1.00
15286;DHT22;7744;52.172;10.668;2023-02-04T12:33:06;4.60;1.00
15286;DHT22;7744;52.172;10.668;2023-02-04T12:35:32;4.50;1.00
15286;DHT22;7744;52.172;10.668;2023-02-04T12:37:57;4.40;99.90
15286;DHT22;7744;52.172;10.668;2023-02-04T12:40:23;4.50;1.00
15286;DHT22;7744;52.172;10.668;2023-02-04T12:42:48;4.50;1.00
15286;DHT22;7744;52.172;10.668;2023-02-04T12:45:15;4.40;1.00
15286;DHT22;7744;52.172;10.668;2023-02-04T12:47:41;4.30;1.00
15286;DHT22;7744;52.172;10.668;2023-02-04T12:50:08;4.30;1.00
15286;DHT22;7744;52.172;10.668;2023-02-04T12:52:34;4.10;99.90
15286;DHT22;7744;52.172;10.668;2023-02-04T13:17:05;4.10;1.00
15286;DHT22;7744;52.172;10.668;2023-02-04T13:41:26;3.80;1.00
15286;DHT22;7744;52.172;10.668;2023-02-04T13:58:28;3.70;1.00
15286;DHT22;7744;52.172;10.668;2023-02-04T14:03:25;3.50;1.00
15286;DHT22;7744;52.172;10.668;2023-02-04T14:08:18;3.60;1.00
15286;DHT22;7744;52.172;10.668;2023-02-04T14:15:36;3.50;1.00
15286;DHT22;7744;52.172;10.668;2023-02-04T14:18:05;4.00;1.00
15286;DHT22;7744;52.172;10.668;2023-02-04T15:11:41;3.70;1.00
15286;DHT22;7744;52.172;10.668;2023-02-04T15:26:17;3.10;1.00
15286;DHT22;7744;52.172;10.668;2023-02-04T15:28:43;3.20;1.00
